createdAt,value
2017-07-28T00:00:14.958Z,3.73
2017-07-28T00:02:41.589Z,4.07
2017-07-28T00:05:08.216Z,3.60
2017-07-28T00:07:34.949Z,3.70
2017-07-28T00:10:01.598Z,3.60
2017-07-28T00:12:28.233Z,3.83
2017-07-28T00:14:54.893Z,3.50
2017-07-28T00:17:21.513Z,3.50
2017-07-28T00:19:48.113Z,3.60
2017-07-28T00:22:15.222Z,3.70
2017-07-28T00:24:41.946Z,4.17
2017-07-28T00:27:08.527Z,3.93
2017-07-28T00:29:35.257Z,4.50
2017-07-28T00:32:01.887Z,3.70
2017-07-28T00:34:28.457Z,3.43
2017-07-28T00:36:55.083Z,3.53
2017-07-28T00:39:21.716Z,3.40
2017-07-28T00:41:48.322Z,3.50
2017-07-28T00:44:15.022Z,3.60
2017-07-28T00:46:41.641Z,3.50
2017-07-28T00:49:08.229Z,3.70
2017-07-28T00:51:34.899Z,3.93
2017-07-28T00:54:01.485Z,3.73
2017-07-28T00:56:28.073Z,3.10
2017-07-28T00:58:54.773Z,3.87
2017-07-28T01:01:21.356Z,3.70
2017-07-28T01:03:48.004Z,4.20
2017-07-28T01:06:14.943Z,4.00
2017-07-28T01:08:41.541Z,3.80
2017-07-28T01:11:08.166Z,3.77
2017-07-28T01:13:34.906Z,4.13
2017-07-28T01:16:01.516Z,4.33
2017-07-28T01:18:28.108Z,3.80
2017-07-28T01:20:54.741Z,4.20
2017-07-28T01:23:21.372Z,4.27
2017-07-28T01:25:47.958Z,4.10
2017-07-28T01:28:14.723Z,4.33
2017-07-28T01:30:41.398Z,4.00
2017-07-28T01:33:08.009Z,4.10
2017-07-28T01:35:34.798Z,3.80
2017-07-28T01:38:01.426Z,4.10
2017-07-28T01:40:28.072Z,3.87
2017-07-28T01:42:54.694Z,3.67
2017-07-28T01:45:21.325Z,4.33
2017-07-28T01:47:47.950Z,4.40
2017-07-28T01:50:14.712Z,4.13
2017-07-28T01:52:41.303Z,4.10
2017-07-28T01:55:07.897Z,3.80
2017-07-28T01:57:34.592Z,4.10
2017-07-28T02:00:01.221Z,4.23
2017-07-28T02:02:27.830Z,3.97
2017-07-28T02:04:54.533Z,4.23
2017-07-28T02:07:21.225Z,4.23
2017-07-28T02:09:47.801Z,3.90
2017-07-28T02:12:14.577Z,4.23
2017-07-28T02:14:41.189Z,4.20
2017-07-28T02:17:07.804Z,3.80
2017-07-28T02:19:34.630Z,3.97
2017-07-28T02:22:01.266Z,4.30
2017-07-28T02:24:27.869Z,4.07
2017-07-28T02:26:54.575Z,4.27
2017-07-28T02:29:21.186Z,4.57
2017-07-28T02:31:47.789Z,4.37
2017-07-28T02:34:14.793Z,4.03
2017-07-28T02:36:41.368Z,4.57
2017-07-28T02:39:07.958Z,3.87
2017-07-28T02:41:34.770Z,4.53
2017-07-28T02:44:01.395Z,4.37
2017-07-28T02:46:28.002Z,4.30
2017-07-28T02:48:54.642Z,4.20
2017-07-28T02:51:21.265Z,4.33
2017-07-28T02:53:47.864Z,4.13
2017-07-28T02:56:14.796Z,4.03
2017-07-28T02:58:41.405Z,3.93
2017-07-28T03:01:07.998Z,4.33
2017-07-28T03:03:34.779Z,4.10
2017-07-28T03:06:01.414Z,4.10
2017-07-28T03:08:28.010Z,4.07
2017-07-28T03:10:55.014Z,3.97
2017-07-28T03:13:21.593Z,4.20
2017-07-28T03:15:48.199Z,3.90
2017-07-28T03:18:14.838Z,3.53
2017-07-28T03:20:41.430Z,3.83
2017-07-28T03:23:08.045Z,3.90
2017-07-28T03:25:34.786Z,4.30
2017-07-28T03:28:01.430Z,3.80
2017-07-28T03:30:28.047Z,4.30
2017-07-28T03:32:54.878Z,4.07
2017-07-28T03:35:21.465Z,4.40
2017-07-28T03:37:48.089Z,4.30
2017-07-28T03:40:14.826Z,4.60
2017-07-28T03:42:41.455Z,4.00
2017-07-28T03:45:08.169Z,3.90
2017-07-28T03:47:35.220Z,4.20
2017-07-28T03:50:01.829Z,4.07
2017-07-28T03:52:28.441Z,4.20
2017-07-28T03:54:55.072Z,4.17
2017-07-28T03:57:21.649Z,3.70
2017-07-28T03:59:48.277Z,4.27
2017-07-28T04:02:14.895Z,3.97
2017-07-28T04:04:41.507Z,3.60
2017-07-28T04:07:08.121Z,4.20
2017-07-28T04:09:34.981Z,3.90
2017-07-28T04:12:01.596Z,4.07
2017-07-28T04:14:28.173Z,4.30
2017-07-28T04:16:54.810Z,3.97
2017-07-28T04:19:21.459Z,3.50
2017-07-28T04:21:48.034Z,3.40
2017-07-28T04:24:14.780Z,3.67
2017-07-28T04:26:41.370Z,4.00
2017-07-28T04:29:08.016Z,3.80
2017-07-28T04:31:34.827Z,3.97
2017-07-28T04:34:01.540Z,4.10
2017-07-28T04:36:28.144Z,4.27
2017-07-28T04:38:55.127Z,4.47
2017-07-28T04:41:21.834Z,4.03
2017-07-28T04:43:48.421Z,3.67
2017-07-28T04:46:15.460Z,4.13
2017-07-28T04:48:42.056Z,3.93
2017-07-28T04:51:08.673Z,3.97
2017-07-28T04:53:35.407Z,4.20
2017-07-28T04:56:01.982Z,3.67
2017-07-28T04:58:28.586Z,4.37
2017-07-28T05:00:55.289Z,4.47
2017-07-28T05:03:21.880Z,4.67
2017-07-28T05:05:58.771Z,4.43
2017-07-28T05:08:25.416Z,3.80
2017-07-28T05:10:52.005Z,4.33
2017-07-28T05:13:18.592Z,3.70
2017-07-28T05:15:45.242Z,4.30
2017-07-28T05:18:11.849Z,4.40
2017-07-28T05:20:38.450Z,5.23
2017-07-28T05:23:05.053Z,4.90
2017-07-28T05:25:31.662Z,4.80
2017-07-28T05:27:58.506Z,5.07
2017-07-28T05:30:25.087Z,4.60
2017-07-28T05:32:51.694Z,5.10
2017-07-28T05:35:18.440Z,4.60
2017-07-28T05:37:45.055Z,5.20
2017-07-28T05:40:11.635Z,4.43
2017-07-28T05:42:38.248Z,4.80
2017-07-28T05:45:04.846Z,4.87
2017-07-28T05:47:31.427Z,4.83
2017-07-28T05:49:58.037Z,4.83
2017-07-28T05:52:24.720Z,5.00
2017-07-28T05:54:51.754Z,4.97
2017-07-28T05:57:18.495Z,4.60
2017-07-28T05:59:45.093Z,4.10
2017-07-28T06:02:11.737Z,4.30
2017-07-28T06:04:38.337Z,4.53
2017-07-28T06:07:04.992Z,4.13
2017-07-28T06:09:31.584Z,4.10
2017-07-28T06:11:58.197Z,3.90
2017-07-28T06:14:24.778Z,4.87
2017-07-28T06:16:51.424Z,4.17
2017-07-28T06:19:18.057Z,4.43
2017-07-28T06:21:44.659Z,3.83
2017-07-28T06:24:11.263Z,4.07
2017-07-28T06:26:38.272Z,3.80
2017-07-28T06:29:04.883Z,4.60
2017-07-28T06:31:31.485Z,3.80
2017-07-28T06:33:58.145Z,3.37
2017-07-28T06:36:24.714Z,3.30
2017-07-28T06:38:51.369Z,3.60
2017-07-28T06:41:18.492Z,3.13
2017-07-28T06:43:45.158Z,3.50
2017-07-28T06:46:11.741Z,3.07
2017-07-28T06:48:38.595Z,3.17
2017-07-28T06:51:05.186Z,3.47
2017-07-28T06:53:31.799Z,3.90
2017-07-28T06:55:58.435Z,3.77
2017-07-28T06:58:25.065Z,3.57
2017-07-28T07:00:51.677Z,3.00
2017-07-28T07:03:18.440Z,3.20
2017-07-28T07:05:45.125Z,3.10
2017-07-28T07:08:11.741Z,3.83
2017-07-28T07:10:38.378Z,3.10
2017-07-28T07:13:04.956Z,3.10
2017-07-28T07:15:31.583Z,2.90
2017-07-28T07:17:58.306Z,3.13
2017-07-28T07:20:24.894Z,3.53
2017-07-28T07:22:51.510Z,3.40
2017-07-28T07:25:18.178Z,3.63
2017-07-28T07:27:44.951Z,3.40
2017-07-28T07:30:12.503Z,3.30
2017-07-28T07:32:39.155Z,3.27
2017-07-28T07:35:06.008Z,3.27
2017-07-28T07:37:32.590Z,2.80
2017-07-28T07:39:59.324Z,2.77
2017-07-28T07:42:25.978Z,3.13
2017-07-28T07:44:52.657Z,2.97
2017-07-28T07:47:19.406Z,3.00
2017-07-28T07:49:46.101Z,3.10
2017-07-28T07:52:12.731Z,2.93
2017-07-28T07:54:39.367Z,2.67
2017-07-28T07:57:06.014Z,2.60
2017-07-28T07:59:32.692Z,3.20
2017-07-28T08:01:59.556Z,3.13
2017-07-28T08:04:26.231Z,3.07
2017-07-28T08:06:52.910Z,2.80
2017-07-28T08:09:19.623Z,2.70
2017-07-28T08:11:46.302Z,2.57
2017-07-28T08:14:12.982Z,2.90
2017-07-28T08:16:39.617Z,3.17
2017-07-28T08:19:06.272Z,2.50
2017-07-28T08:21:32.926Z,2.50
2017-07-28T08:23:59.626Z,2.37
2017-07-28T08:26:26.183Z,2.30
2017-07-28T08:28:52.861Z,2.83
2017-07-28T08:31:19.687Z,1.80
2017-07-28T08:33:46.392Z,2.00
2017-07-28T08:36:13.264Z,2.70
2017-07-28T08:38:41.042Z,2.50
2017-07-28T08:41:07.702Z,2.30
2017-07-28T08:43:34.349Z,2.40
2017-07-28T08:46:01.397Z,2.23
2017-07-28T08:48:28.181Z,2.70
2017-07-28T08:50:54.880Z,2.40
2017-07-28T08:53:21.762Z,2.00
2017-07-28T08:55:48.463Z,2.30
2017-07-28T08:58:15.090Z,2.20
2017-07-28T09:00:41.757Z,2.53
2017-07-28T09:03:08.334Z,2.40
2017-07-28T09:05:34.995Z,2.50
2017-07-28T09:08:02.023Z,2.43
2017-07-28T09:10:28.705Z,2.63
2017-07-28T09:12:55.377Z,3.10
2017-07-28T09:15:22.126Z,2.60
2017-07-28T09:17:48.754Z,2.60
2017-07-28T09:20:15.418Z,2.60
2017-07-28T09:22:42.197Z,2.50
2017-07-28T09:25:08.841Z,2.40
2017-07-28T09:27:35.572Z,2.33
2017-07-28T09:30:02.573Z,2.30
2017-07-28T09:32:29.193Z,2.10
2017-07-28T09:34:55.815Z,2.17
2017-07-28T09:37:22.669Z,2.40
2017-07-28T09:39:49.332Z,2.20
2017-07-28T09:42:16.161Z,2.27
2017-07-28T09:44:42.974Z,2.17
2017-07-28T09:47:10.653Z,2.20
2017-07-28T09:49:37.294Z,2.27
2017-07-28T09:52:10.493Z,2.33
2017-07-28T09:54:40.321Z,2.53
2017-07-28T09:57:06.962Z,2.57
2017-07-28T09:59:33.581Z,2.00
2017-07-28T10:02:00.243Z,1.93
2017-07-28T10:04:26.872Z,1.97
2017-07-28T10:06:53.576Z,2.33
2017-07-28T10:09:20.224Z,2.10
2017-07-28T10:11:46.886Z,2.00
2017-07-28T10:14:13.534Z,2.17
2017-07-28T10:16:40.172Z,2.20
2017-07-28T10:19:06.840Z,2.77
2017-07-28T10:21:33.473Z,1.93
2017-07-28T10:24:00.280Z,2.30
2017-07-28T10:26:27.057Z,2.10
2017-07-28T10:29:00.411Z,2.00
2017-07-28T10:31:27.176Z,2.70
2017-07-28T10:33:53.842Z,2.00
2017-07-28T10:36:20.675Z,2.07
2017-07-28T10:38:47.302Z,2.17
2017-07-28T10:41:14.292Z,1.90
2017-07-28T10:43:48.506Z,2.00
2017-07-28T10:46:15.163Z,2.10
2017-07-28T10:48:42.593Z,1.90
2017-07-28T10:51:09.674Z,1.73
2017-07-28T10:53:36.325Z,1.90
2017-07-28T10:56:02.900Z,2.30
2017-07-28T10:58:33.009Z,2.10
2017-07-28T11:00:59.648Z,2.20
2017-07-28T11:03:33.280Z,2.03
2017-07-28T11:06:00.061Z,2.00
2017-07-28T11:08:26.924Z,1.73
2017-07-28T11:10:53.720Z,2.87
2017-07-28T11:13:20.304Z,1.90
2017-07-28T11:15:46.964Z,1.87
2017-07-28T11:18:13.872Z,1.90
2017-07-28T11:20:40.446Z,2.10
2017-07-28T11:23:09.919Z,1.90
2017-07-28T11:25:37.610Z,1.80
2017-07-28T11:28:04.203Z,1.77
2017-07-28T11:30:31.087Z,1.80
2017-07-28T11:32:57.800Z,1.60
2017-07-28T11:35:24.381Z,1.70
2017-07-28T11:37:50.962Z,1.83
2017-07-28T11:40:17.951Z,2.00
2017-07-28T11:42:47.801Z,2.40
2017-07-28T11:45:15.038Z,2.03
2017-07-28T11:47:41.830Z,1.80
2017-07-28T11:50:08.532Z,2.30
2017-07-28T11:52:35.090Z,2.23
2017-07-28T11:55:01.699Z,2.00
2017-07-28T11:57:28.289Z,2.10
2017-07-28T11:59:54.865Z,1.90
2017-07-28T12:02:21.895Z,1.90
2017-07-28T12:04:48.505Z,1.97
2017-07-28T12:07:15.286Z,1.70
2017-07-28T12:09:42.431Z,2.40
2017-07-28T12:12:08.992Z,2.00
2017-07-28T12:14:35.564Z,1.87
2017-07-28T12:17:02.228Z,2.63
2017-07-28T12:19:28.809Z,1.90
2017-07-28T12:21:55.381Z,1.93
2017-07-28T12:24:21.993Z,2.00
2017-07-28T12:26:48.779Z,2.00
2017-07-28T12:29:15.736Z,1.80
2017-07-28T12:31:42.699Z,1.87
2017-07-28T12:34:09.269Z,2.20
2017-07-28T12:36:35.844Z,1.93
2017-07-28T12:39:02.465Z,1.93
2017-07-28T12:41:29.052Z,1.73
2017-07-28T12:43:55.620Z,2.17
2017-07-28T12:46:22.213Z,2.03
2017-07-28T12:48:48.944Z,1.97
2017-07-28T12:51:15.498Z,1.70
2017-07-28T12:53:42.532Z,2.20
2017-07-28T12:56:09.121Z,1.80
2017-07-28T12:58:35.701Z,2.30
2017-07-28T13:01:02.302Z,2.00
2017-07-28T13:03:28.922Z,1.73
2017-07-28T13:05:55.558Z,2.13
2017-07-28T13:08:22.285Z,1.70
2017-07-28T13:10:48.856Z,1.63
2017-07-28T13:13:15.498Z,1.80
2017-07-28T13:15:42.152Z,1.93
2017-07-28T13:18:08.716Z,1.93
2017-07-28T13:20:37.000Z,2.00
2017-07-28T13:23:03.687Z,1.90
2017-07-28T13:25:30.268Z,1.97
2017-07-28T13:27:56.841Z,2.03
2017-07-28T13:30:23.575Z,1.73
2017-07-28T13:32:50.211Z,2.03
2017-07-28T13:35:16.820Z,2.00
2017-07-28T13:37:43.626Z,2.40
2017-07-28T13:40:10.197Z,2.20
2017-07-28T13:42:36.823Z,2.17
2017-07-28T13:45:03.603Z,2.10
2017-07-28T13:47:30.177Z,2.00
2017-07-28T13:49:56.756Z,1.73
2017-07-28T13:52:23.341Z,1.70
2017-07-28T13:54:49.926Z,2.20
2017-07-28T13:57:16.517Z,1.87
2017-07-28T13:59:43.454Z,1.90
2017-07-28T14:02:10.873Z,2.00
2017-07-28T14:04:37.459Z,1.67
2017-07-28T14:07:04.217Z,2.07
2017-07-28T14:09:30.954Z,2.10
2017-07-28T14:11:57.529Z,2.00
2017-07-28T14:14:24.270Z,1.83
2017-07-28T14:16:50.866Z,1.77
2017-07-28T14:19:17.462Z,1.50
2017-07-28T14:21:44.651Z,1.80
2017-07-28T14:24:11.854Z,1.77
2017-07-28T14:26:38.433Z,1.70
2017-07-28T14:29:05.053Z,1.70
2017-07-28T14:31:31.717Z,1.73
2017-07-28T14:33:58.289Z,1.70
2017-07-28T14:36:25.021Z,2.27
2017-07-28T14:38:51.686Z,1.70
2017-07-28T14:41:18.466Z,1.60
2017-07-28T14:43:45.569Z,2.00
2017-07-28T14:46:22.116Z,1.83
2017-07-28T14:48:48.727Z,1.60
2017-07-28T14:51:15.698Z,1.70
2017-07-28T14:53:42.973Z,1.50
2017-07-28T14:56:09.601Z,1.80
2017-07-28T14:58:36.212Z,1.60
2017-07-28T15:01:02.781Z,2.20
2017-07-28T15:03:29.409Z,1.93
2017-07-28T15:05:56.013Z,1.63
2017-07-28T15:08:22.604Z,1.93
2017-07-28T15:10:49.274Z,2.00
2017-07-28T15:13:16.259Z,2.10
2017-07-28T15:15:42.919Z,1.60
2017-07-28T15:18:09.521Z,1.90
2017-07-28T15:20:36.092Z,1.73
2017-07-28T15:23:02.681Z,1.90
2017-07-28T15:25:29.505Z,1.83
2017-07-28T15:27:56.091Z,1.60
2017-07-28T15:30:22.677Z,2.00
2017-07-28T15:32:49.692Z,2.20
2017-07-28T15:35:16.279Z,1.80
2017-07-28T15:37:42.951Z,1.50
2017-07-28T15:40:09.826Z,1.73
2017-07-28T15:42:36.422Z,1.77
2017-07-28T15:45:04.255Z,1.50
2017-07-28T15:47:31.006Z,1.73
2017-07-28T15:49:57.637Z,1.80
2017-07-28T15:52:24.691Z,1.70
2017-07-28T15:54:51.406Z,1.60
2017-07-28T15:57:17.972Z,1.73
2017-07-28T15:59:44.735Z,1.83
2017-07-28T16:02:11.785Z,1.90
2017-07-28T16:04:38.396Z,1.53
2017-07-28T16:07:05.170Z,1.60
2017-07-28T16:09:31.778Z,1.67
2017-07-28T16:12:05.013Z,1.70
2017-07-28T16:14:35.067Z,2.10
2017-07-28T16:17:01.650Z,2.10
2017-07-28T16:19:34.197Z,1.70
2017-07-28T16:22:00.788Z,1.83
2017-07-28T16:24:27.370Z,2.20
2017-07-28T16:26:54.114Z,1.80
2017-07-28T16:29:20.716Z,1.60
2017-07-28T16:31:53.867Z,2.23
2017-07-28T16:34:20.465Z,2.60
2017-07-28T16:36:47.129Z,1.83
2017-07-28T16:39:24.110Z,1.80
2017-07-28T16:41:50.703Z,1.80
2017-07-28T16:44:24.087Z,1.60
2017-07-28T16:46:50.660Z,1.70
2017-07-28T16:49:17.235Z,1.60
2017-07-28T16:51:53.652Z,1.40
2017-07-28T16:54:20.292Z,1.70
2017-07-28T16:56:46.895Z,1.50
2017-07-28T16:59:13.527Z,1.53
2017-07-28T17:01:40.091Z,1.87
2017-07-28T17:04:06.720Z,1.60
2017-07-28T17:06:33.342Z,1.80
2017-07-28T17:09:00.095Z,1.63
2017-07-28T17:11:26.948Z,2.30
2017-07-28T17:13:53.598Z,1.70
2017-07-28T17:16:20.690Z,1.60
2017-07-28T17:18:47.297Z,2.00
2017-07-28T17:21:17.586Z,1.87
2017-07-28T17:23:44.278Z,1.90
2017-07-28T17:26:10.849Z,1.87
2017-07-28T17:28:37.577Z,1.80
2017-07-28T17:31:04.169Z,1.73
2017-07-28T17:33:30.869Z,1.43
2017-07-28T17:35:58.188Z,2.37
2017-07-28T17:38:24.783Z,2.00
2017-07-28T17:40:51.348Z,1.90
2017-07-28T17:43:18.085Z,1.83
2017-07-28T17:45:45.525Z,2.03
2017-07-28T17:48:12.148Z,2.37
2017-07-28T17:50:38.901Z,1.80
2017-07-28T17:53:05.486Z,1.77
2017-07-28T17:55:32.057Z,1.93
2017-07-28T17:57:58.796Z,1.77
2017-07-28T18:00:25.368Z,1.70
2017-07-28T18:02:51.941Z,2.07
2017-07-28T18:05:18.829Z,1.70
2017-07-28T18:07:46.067Z,1.60
2017-07-28T18:10:12.658Z,2.20
2017-07-28T18:12:39.482Z,1.50
2017-07-28T18:15:06.058Z,2.17
2017-07-28T18:17:32.629Z,1.60
2017-07-28T18:19:59.237Z,2.10
2017-07-28T18:22:25.814Z,2.63
2017-07-28T18:24:52.393Z,1.87
2017-07-28T18:27:19.141Z,1.87
2017-07-28T18:29:45.725Z,2.00
2017-07-28T18:32:12.307Z,1.90
2017-07-28T18:34:39.322Z,2.40
2017-07-28T18:37:05.904Z,2.00
2017-07-28T18:39:32.478Z,2.30
2017-07-28T18:41:59.277Z,2.40
2017-07-28T18:44:26.078Z,2.30
2017-07-28T18:46:52.646Z,2.67
2017-07-28T18:49:19.461Z,2.63
2017-07-28T18:51:46.108Z,2.47
2017-07-28T18:54:12.731Z,2.10
2017-07-28T18:56:39.632Z,2.60
2017-07-28T18:59:06.213Z,2.53
2017-07-28T19:01:32.824Z,2.93
2017-07-28T19:03:59.456Z,3.20
2017-07-28T19:06:26.010Z,3.17
2017-07-28T19:08:52.613Z,2.80
2017-07-28T19:11:19.382Z,2.77
2017-07-28T19:13:45.972Z,2.37
2017-07-28T19:16:12.558Z,2.07
2017-07-28T19:18:39.288Z,2.40
2017-07-28T19:21:05.869Z,2.43
2017-07-28T19:23:32.441Z,2.30
2017-07-28T19:25:59.045Z,2.30
2017-07-28T19:28:25.648Z,2.67
2017-07-28T19:30:52.202Z,2.83
2017-07-28T19:33:18.832Z,2.87
2017-07-28T19:35:45.409Z,3.60
2017-07-28T19:38:12.000Z,3.40
2017-07-28T19:40:38.587Z,2.90
2017-07-28T19:43:05.158Z,2.90
2017-07-28T19:45:31.774Z,2.97
2017-07-28T19:47:58.440Z,2.70
2017-07-28T19:50:25.097Z,2.63
2017-07-28T19:52:51.673Z,2.50
2017-07-28T19:55:18.367Z,2.90
2017-07-28T19:57:44.933Z,2.57
2017-07-28T20:00:11.506Z,2.40
2017-07-28T20:02:38.256Z,2.40
2017-07-28T20:05:04.845Z,2.60
2017-07-28T20:07:31.428Z,3.90
2017-07-28T20:09:58.146Z,2.33
2017-07-28T20:12:24.721Z,2.50
2017-07-28T20:14:51.316Z,2.90
2017-07-28T20:17:18.127Z,2.80
2017-07-28T20:19:44.716Z,2.50
2017-07-28T20:22:11.286Z,2.70
2017-07-28T20:24:38.015Z,2.70
2017-07-28T20:27:04.593Z,2.73
2017-07-28T20:29:31.175Z,3.10
2017-07-28T20:31:57.901Z,3.40
2017-07-28T20:37:08.504Z,3.00
2017-07-28T20:39:35.081Z,2.70
2017-07-28T20:42:01.720Z,2.93
2017-07-28T20:44:28.300Z,3.03
2017-07-28T20:46:54.875Z,3.13
2017-07-28T20:49:21.464Z,3.40
2017-07-28T20:51:48.099Z,3.10
2017-07-28T20:54:15.004Z,2.93
2017-07-28T20:56:41.595Z,3.20
2017-07-28T20:59:08.171Z,3.30
2017-07-28T21:01:34.769Z,3.30
2017-07-28T21:04:01.345Z,3.10
2017-07-28T21:06:27.927Z,3.10
2017-07-28T21:08:54.530Z,3.30
2017-07-28T21:11:21.114Z,5.20
2017-07-28T21:13:53.595Z,4.00
2017-07-28T21:16:20.174Z,3.70
2017-07-28T21:18:47.016Z,3.40
2017-07-28T21:21:13.645Z,3.23
2017-07-28T21:23:40.203Z,3.77
2017-07-28T21:26:06.955Z,3.60
2017-07-28T21:28:33.632Z,3.53
2017-07-28T21:31:00.196Z,3.40
2017-07-28T21:33:26.773Z,3.70
2017-07-28T21:35:53.464Z,3.97
2017-07-28T21:38:20.036Z,3.83
2017-07-28T21:40:46.624Z,3.70
2017-07-28T21:43:13.308Z,3.50
2017-07-28T21:45:39.893Z,3.50
2017-07-28T21:48:06.512Z,3.60
2017-07-28T21:50:43.652Z,4.10
2017-07-28T21:53:10.316Z,3.83
2017-07-28T21:55:36.883Z,3.70
2017-07-28T21:58:03.461Z,3.90
2017-07-28T22:00:30.039Z,3.90
2017-07-28T22:02:56.617Z,4.50
2017-07-28T22:05:23.200Z,3.87
2017-07-28T22:07:49.809Z,4.50
2017-07-28T22:10:16.566Z,3.87
2017-07-28T22:12:43.249Z,4.37
2017-07-28T22:15:10.156Z,4.10
2017-07-28T22:17:36.723Z,4.00
2017-07-28T22:20:03.312Z,4.23
2017-07-28T22:22:29.935Z,3.83
2017-07-28T22:24:56.504Z,4.10
2017-07-28T22:27:23.078Z,4.00
2017-07-28T22:29:49.713Z,4.00
2017-07-28T22:32:16.304Z,4.30
2017-07-28T22:34:42.880Z,4.30
2017-07-28T22:37:09.475Z,4.40
2017-07-28T22:39:36.053Z,4.40
2017-07-28T22:42:02.636Z,4.37
2017-07-28T22:44:29.208Z,4.10
2017-07-28T22:46:55.788Z,4.07
2017-07-28T22:49:22.368Z,4.40
2017-07-28T22:51:48.995Z,4.10
2017-07-28T22:54:16.037Z,4.40
2017-07-28T22:56:42.670Z,4.37
2017-07-28T22:59:09.236Z,4.60
2017-07-28T23:01:35.808Z,4.17
2017-07-28T23:04:02.543Z,4.27
2017-07-28T23:06:29.104Z,4.10
2017-07-28T23:08:55.688Z,4.10
2017-07-28T23:11:22.279Z,3.80
2017-07-28T23:13:48.938Z,4.33
2017-07-28T23:16:15.566Z,3.97
2017-07-28T23:18:42.162Z,3.73
2017-07-28T23:21:08.872Z,4.20
2017-07-28T23:23:35.513Z,4.30
2017-07-28T23:26:02.083Z,4.43
2017-07-28T23:28:28.664Z,4.27
2017-07-28T23:30:55.243Z,3.90
2017-07-28T23:33:21.815Z,4.30
2017-07-28T23:35:48.401Z,3.97
2017-07-28T23:38:14.999Z,4.37
2017-07-28T23:40:41.604Z,4.30
2017-07-28T23:43:08.192Z,4.70
2017-07-28T23:45:34.768Z,4.10
2017-07-28T23:48:01.341Z,4.17
2017-07-28T23:50:27.928Z,4.20
2017-07-28T23:52:54.497Z,4.30
2017-07-28T23:55:21.166Z,4.50
2017-07-28T23:57:47.752Z,4.60
